sensor_id;sensor_type;location;lat;lon;timestamp;P1;durP1;ratioP1;P2;durP2;ratioP2
58954;SDS011;45815;52.334;5.024;2023-05-10T00:01:01;36.50;;;21.05;;
58954;SDS011;45815;52.334;5.024;2023-05-10T00:03:27;37.65;;;23.02;;
58954;SDS011;45815;52.334;5.024;2023-05-10T00:05:53;35.40;;;22.20;;
58954;SDS011;45815;52.334;5.024;2023-05-10T00:08:18;36.95;;;21.70;;
58954;SDS011;45815;52.334;5.024;2023-05-10T00:10:44;34.30;;;21.38;;
58954;SDS011;45815;52.334;5.024;2023-05-10T00:13:09;38.20;;;23.48;;
58954;SDS011;45815;52.334;5.024;2023-05-10T00:15:35;36.67;;;22.85;;
58954;SDS011;45815;52.334;5.024;2023-05-10T00:18:00;38.10;;;22.63;;
58954;SDS011;45815;52.334;5.024;2023-05-10T00:20:26;35.55;;;23.20;;
58954;SDS011;45815;52.334;5.024;2023-05-10T00:22:51;44.15;;;22.83;;
58954;SDS011;45815;52.334;5.024;2023-05-10T00:25:17;41.67;;;22.52;;
58954;SDS011;45815;52.334;5.024;2023-05-10T00:27:42;36.53;;;23.00;;
58954;SDS011;45815;52.334;5.024;2023-05-10T00:30:08;35.90;;;22.55;;
58954;SDS011;45815;52.334;5.024;2023-05-10T00:32:34;39.70;;;23.48;;
58954;SDS011;45815;52.334;5.024;2023-05-10T00:34:59;41.03;;;23.98;;
58954;SDS011;45815;52.334;5.024;2023-05-10T00:37:25;39.05;;;23.13;;
58954;SDS011;45815;52.334;5.024;2023-05-10T00:39:51;38.47;;;22.85;;
58954;SDS011;45815;52.334;5.024;2023-05-10T00:42:16;40.35;;;23.42;;
58954;SDS011;45815;52.334;5.024;2023-05-10T00:44:42;38.50;;;23.48;;
58954;SDS011;45815;52.334;5.024;2023-05-10T00:47:07;42.50;;;24.20;;
58954;SDS011;45815;52.334;5.024;2023-05-10T00:49:34;46.42;;;25.63;;
58954;SDS011;45815;52.334;5.024;2023-05-10T00:52:00;48.05;;;25.20;;
58954;SDS011;45815;52.334;5.024;2023-05-10T00:54:27;44.97;;;25.08;;
58954;SDS011;45815;52.334;5.024;2023-05-10T00:56:52;45.90;;;26.23;;
58954;SDS011;45815;52.334;5.024;2023-05-10T00:59:18;52.47;;;26.52;;
58954;SDS011;45815;52.334;5.024;2023-05-10T01:01:47;46.03;;;25.55;;
58954;SDS011;45815;52.334;5.024;2023-05-10T01:04:13;48.38;;;26.05;;
58954;SDS011;45815;52.334;5.024;2023-05-10T01:06:39;46.40;;;25.95;;
58954;SDS011;45815;52.334;5.024;2023-05-10T01:09:05;50.45;;;26.65;;
58954;SDS011;45815;52.334;5.024;2023-05-10T01:11:32;51.28;;;25.98;;
58954;SDS011;45815;52.334;5.024;2023-05-10T01:14:02;45.22;;;25.92;;
58954;SDS011;45815;52.334;5.024;2023-05-10T01:16:28;46.65;;;26.63;;
58954;SDS011;45815;52.334;5.024;2023-05-10T01:18:57;49.35;;;27.13;;
58954;SDS011;45815;52.334;5.024;2023-05-10T01:22:06;50.05;;;26.13;;
58954;SDS011;45815;52.334;5.024;2023-05-10T01:30:06;50.42;;;28.35;;
58954;SDS011;45815;52.334;5.024;2023-05-10T01:35:55;44.42;;;27.48;;
58954;SDS011;45815;52.334;5.024;2023-05-10T01:46:31;47.00;;;29.50;;
58954;SDS011;45815;52.334;5.024;2023-05-10T01:49:01;46.00;;;28.65;;
58954;SDS011;45815;52.334;5.024;2023-05-10T01:51:31;49.65;;;31.13;;
58954;SDS011;45815;52.334;5.024;2023-05-10T01:54:04;49.17;;;29.98;;
58954;SDS011;45815;52.334;5.024;2023-05-10T01:56:32;53.75;;;30.42;;
58954;SDS011;45815;52.334;5.024;2023-05-10T01:59:00;51.83;;;30.67;;
58954;SDS011;45815;52.334;5.024;2023-05-10T02:01:30;50.03;;;30.83;;
58954;SDS011;45815;52.334;5.024;2023-05-10T02:03:56;55.00;;;31.48;;
58954;SDS011;45815;52.334;5.024;2023-05-10T02:06:23;54.28;;;32.78;;
58954;SDS011;45815;52.334;5.024;2023-05-10T02:08:51;50.78;;;30.45;;
58954;SDS011;45815;52.334;5.024;2023-05-10T02:11:18;51.20;;;32.03;;
58954;SDS011;45815;52.334;5.024;2023-05-10T02:13:47;53.08;;;30.58;;
58954;SDS011;45815;52.334;5.024;2023-05-10T02:16:14;51.63;;;30.38;;
58954;SDS011;45815;52.334;5.024;2023-05-10T02:18:41;49.85;;;31.00;;
58954;SDS011;45815;52.334;5.024;2023-05-10T02:21:08;54.03;;;32.28;;
58954;SDS011;45815;52.334;5.024;2023-05-10T02:23:37;49.97;;;30.67;;
58954;SDS011;45815;52.334;5.024;2023-05-10T02:26:03;55.90;;;31.95;;
58954;SDS011;45815;52.334;5.024;2023-05-10T02:28:31;54.85;;;31.73;;
58954;SDS011;45815;52.334;5.024;2023-05-10T02:30:57;50.72;;;31.38;;
58954;SDS011;45815;52.334;5.024;2023-05-10T02:33:23;57.45;;;33.22;;
58954;SDS011;45815;52.334;5.024;2023-05-10T02:35:51;56.97;;;32.50;;
58954;SDS011;45815;52.334;5.024;2023-05-10T02:38:18;53.90;;;32.42;;
58954;SDS011;45815;52.334;5.024;2023-05-10T02:40:45;60.72;;;33.50;;
58954;SDS011;45815;52.334;5.024;2023-05-10T02:43:12;58.72;;;32.85;;
58954;SDS011;45815;52.334;5.024;2023-05-10T02:45:39;61.83;;;33.47;;
58954;SDS011;45815;52.334;5.024;2023-05-10T02:48:08;58.70;;;32.85;;
58954;SDS011;45815;52.334;5.024;2023-05-10T02:50:33;54.13;;;31.50;;
58954;SDS011;45815;52.334;5.024;2023-05-10T02:53:03;51.13;;;30.33;;
58954;SDS011;45815;52.334;5.024;2023-05-10T02:55:38;49.97;;;27.50;;
58954;SDS011;45815;52.334;5.024;2023-05-10T02:58:06;52.58;;;28.90;;
58954;SDS011;45815;52.334;5.024;2023-05-10T03:00:32;49.60;;;28.52;;
58954;SDS011;45815;52.334;5.024;2023-05-10T03:02:57;49.15;;;28.10;;
58954;SDS011;45815;52.334;5.024;2023-05-10T03:05:24;47.50;;;29.25;;
58954;SDS011;45815;52.334;5.024;2023-05-10T03:07:50;49.70;;;28.92;;
58954;SDS011;45815;52.334;5.024;2023-05-10T03:10:17;43.67;;;24.63;;
58954;SDS011;45815;52.334;5.024;2023-05-10T03:17:54;176.07;;;97.15;;
58954;SDS011;45815;52.334;5.024;2023-05-10T03:20:24;38.83;;;22.70;;
58954;SDS011;45815;52.334;5.024;2023-05-10T03:23:02;33.25;;;20.45;;
58954;SDS011;45815;52.334;5.024;2023-05-10T03:25:32;36.10;;;20.15;;
58954;SDS011;45815;52.334;5.024;2023-05-10T03:28:01;40.03;;;21.90;;
58954;SDS011;45815;52.334;5.024;2023-05-10T03:30:29;37.30;;;22.85;;
58954;SDS011;45815;52.334;5.024;2023-05-10T03:32:55;41.90;;;24.15;;
58954;SDS011;45815;52.334;5.024;2023-05-10T03:35:22;34.80;;;20.00;;
58954;SDS011;45815;52.334;5.024;2023-05-10T03:37:48;37.38;;;23.17;;
58954;SDS011;45815;52.334;5.024;2023-05-10T03:40:14;39.50;;;22.45;;
58954;SDS011;45815;52.334;5.024;2023-05-10T03:42:41;37.83;;;21.63;;
58954;SDS011;45815;52.334;5.024;2023-05-10T03:45:07;34.92;;;19.70;;
58954;SDS011;45815;52.334;5.024;2023-05-10T03:47:33;36.95;;;21.38;;
58954;SDS011;45815;52.334;5.024;2023-05-10T03:49:58;43.00;;;25.23;;
58954;SDS011;45815;52.334;5.024;2023-05-10T03:52:24;48.40;;;25.98;;
58954;SDS011;45815;52.334;5.024;2023-05-10T03:54:49;45.50;;;25.92;;
58954;SDS011;45815;52.334;5.024;2023-05-10T03:57:15;45.08;;;24.67;;
58954;SDS011;45815;52.334;5.024;2023-05-10T03:59:40;45.20;;;25.33;;
58954;SDS011;45815;52.334;5.024;2023-05-10T04:02:05;72.32;;;38.67;;
58954;SDS011;45815;52.334;5.024;2023-05-10T04:04:31;46.85;;;24.63;;
58954;SDS011;45815;52.334;5.024;2023-05-10T04:06:57;48.08;;;27.38;;
58954;SDS011;45815;52.334;5.024;2023-05-10T04:09:22;47.35;;;24.10;;
58954;SDS011;45815;52.334;5.024;2023-05-10T04:11:48;38.53;;;23.88;;
58954;SDS011;45815;52.334;5.024;2023-05-10T04:14:13;36.08;;;20.92;;
58954;SDS011;45815;52.334;5.024;2023-05-10T04:16:38;34.45;;;20.65;;
58954;SDS011;45815;52.334;5.024;2023-05-10T04:19:04;35.33;;;19.02;;
58954;SDS011;45815;52.334;5.024;2023-05-10T04:21:29;42.60;;;22.00;;
58954;SDS011;45815;52.334;5.024;2023-05-10T04:23:55;37.33;;;19.85;;
58954;SDS011;45815;52.334;5.024;2023-05-10T04:26:20;36.03;;;21.23;;
58954;SDS011;45815;52.334;5.024;2023-05-10T04:28:47;38.00;;;22.48;;
58954;SDS011;45815;52.334;5.024;2023-05-10T04:31:12;42.00;;;22.75;;
58954;SDS011;45815;52.334;5.024;2023-05-10T04:33:38;141.30;;;88.13;;
58954;SDS011;45815;52.334;5.024;2023-05-10T04:36:04;199.27;;;121.88;;
58954;SDS011;45815;52.334;5.024;2023-05-10T04:38:30;45.97;;;25.35;;
58954;SDS011;45815;52.334;5.024;2023-05-10T04:41:03;45.97;;;23.83;;
58954;SDS011;45815;52.334;5.024;2023-05-10T04:43:32;31.13;;;18.33;;
58954;SDS011;45815;52.334;5.024;2023-05-10T04:45:58;34.03;;;20.15;;
58954;SDS011;45815;52.334;5.024;2023-05-10T04:48:23;29.20;;;18.83;;
58954;SDS011;45815;52.334;5.024;2023-05-10T04:50:49;32.65;;;19.02;;
58954;SDS011;45815;52.334;5.024;2023-05-10T04:53:14;34.50;;;19.02;;
58954;SDS011;45815;52.334;5.024;2023-05-10T04:55:39;33.75;;;19.30;;
58954;SDS011;45815;52.334;5.024;2023-05-10T04:58:05;38.58;;;20.40;;
58954;SDS011;45815;52.334;5.024;2023-05-10T05:00:30;38.55;;;21.10;;
58954;SDS011;45815;52.334;5.024;2023-05-10T05:02:55;35.28;;;20.38;;
58954;SDS011;45815;52.334;5.024;2023-05-10T05:05:21;36.92;;;19.45;;
58954;SDS011;45815;52.334;5.024;2023-05-10T05:07:46;39.05;;;21.33;;
58954;SDS011;45815;52.334;5.024;2023-05-10T05:10:11;38.03;;;23.08;;
58954;SDS011;45815;52.334;5.024;2023-05-10T05:12:37;117.05;;;69.15;;
58954;SDS011;45815;52.334;5.024;2023-05-10T05:15:03;106.20;;;72.13;;
58954;SDS011;45815;52.334;5.024;2023-05-10T05:17:30;52.90;;;30.35;;
58954;SDS011;45815;52.334;5.024;2023-05-10T05:19:55;56.75;;;33.90;;
58954;SDS011;45815;52.334;5.024;2023-05-10T05:22:21;36.85;;;20.10;;
58954;SDS011;45815;52.334;5.024;2023-05-10T05:24:52;36.50;;;20.63;;
58954;SDS011;45815;52.334;5.024;2023-05-10T05:27:20;37.22;;;20.60;;
58954;SDS011;45815;52.334;5.024;2023-05-10T05:29:49;38.40;;;20.67;;
58954;SDS011;45815;52.334;5.024;2023-05-10T05:32:18;36.45;;;20.80;;
58954;SDS011;45815;52.334;5.024;2023-05-10T05:34:46;34.63;;;18.75;;
58954;SDS011;45815;52.334;5.024;2023-05-10T05:37:12;35.55;;;18.73;;
58954;SDS011;45815;52.334;5.024;2023-05-10T05:39:39;39.45;;;19.73;;
58954;SDS011;45815;52.334;5.024;2023-05-10T05:42:04;34.45;;;18.85;;
58954;SDS011;45815;52.334;5.024;2023-05-10T05:44:30;38.72;;;19.63;;
58954;SDS011;45815;52.334;5.024;2023-05-10T05:46:55;27.08;;;15.80;;
58954;SDS011;45815;52.334;5.024;2023-05-10T05:49:21;31.67;;;18.17;;
58954;SDS011;45815;52.334;5.024;2023-05-10T05:51:46;68.90;;;40.40;;
58954;SDS011;45815;52.334;5.024;2023-05-10T05:54:14;165.55;;;98.80;;
58954;SDS011;45815;52.334;5.024;2023-05-10T05:56:39;95.03;;;55.65;;
58954;SDS011;45815;52.334;5.024;2023-05-10T05:59:04;59.15;;;33.60;;
58954;SDS011;45815;52.334;5.024;2023-05-10T06:01:30;46.95;;;28.25;;
58954;SDS011;45815;52.334;5.024;2023-05-10T06:03:55;30.73;;;18.58;;
58954;SDS011;45815;52.334;5.024;2023-05-10T06:06:21;34.60;;;19.73;;
58954;SDS011;45815;52.334;5.024;2023-05-10T06:08:46;28.40;;;16.33;;
58954;SDS011;45815;52.334;5.024;2023-05-10T06:11:11;24.65;;;14.02;;
58954;SDS011;45815;52.334;5.024;2023-05-10T06:13:38;24.58;;;13.98;;
58954;SDS011;45815;52.334;5.024;2023-05-10T06:16:04;25.48;;;14.13;;
58954;SDS011;45815;52.334;5.024;2023-05-10T06:18:29;21.08;;;12.82;;
58954;SDS011;45815;52.334;5.024;2023-05-10T06:20:55;22.42;;;13.38;;
58954;SDS011;45815;52.334;5.024;2023-05-10T06:23:21;24.10;;;13.35;;
58954;SDS011;45815;52.334;5.024;2023-05-10T06:25:47;20.35;;;12.15;;
58954;SDS011;45815;52.334;5.024;2023-05-10T06:28:12;23.30;;;13.43;;
58954;SDS011;45815;52.334;5.024;2023-05-10T06:30:38;20.98;;;11.75;;
58954;SDS011;45815;52.334;5.024;2023-05-10T06:33:03;19.13;;;12.05;;
58954;SDS011;45815;52.334;5.024;2023-05-10T06:35:28;21.95;;;12.60;;
58954;SDS011;45815;52.334;5.024;2023-05-10T06:37:54;21.25;;;11.20;;
58954;SDS011;45815;52.334;5.024;2023-05-10T06:40:20;21.30;;;13.32;;
58954;SDS011;45815;52.334;5.024;2023-05-10T06:42:46;19.92;;;11.73;;
58954;SDS011;45815;52.334;5.024;2023-05-10T06:45:12;21.10;;;11.50;;
58954;SDS011;45815;52.334;5.024;2023-05-10T06:47:39;20.75;;;10.80;;
58954;SDS011;45815;52.334;5.024;2023-05-10T06:50:05;22.70;;;12.45;;
58954;SDS011;45815;52.334;5.024;2023-05-10T06:52:32;57.20;;;31.58;;
58954;SDS011;45815;52.334;5.024;2023-05-10T06:54:57;28.17;;;16.58;;
58954;SDS011;45815;52.334;5.024;2023-05-10T06:57:23;22.00;;;12.50;;
58954;SDS011;45815;52.334;5.024;2023-05-10T06:59:49;21.65;;;11.98;;
58954;SDS011;45815;52.334;5.024;2023-05-10T07:02:14;19.17;;;12.13;;
58954;SDS011;45815;52.334;5.024;2023-05-10T07:04:40;23.00;;;12.57;;
58954;SDS011;45815;52.334;5.024;2023-05-10T07:07:05;21.40;;;12.65;;
58954;SDS011;45815;52.334;5.024;2023-05-10T07:09:31;21.70;;;13.80;;
58954;SDS011;45815;52.334;5.024;2023-05-10T07:11:56;24.48;;;13.18;;
58954;SDS011;45815;52.334;5.024;2023-05-10T07:14:22;22.77;;;12.25;;
58954;SDS011;45815;52.334;5.024;2023-05-10T07:16:48;79.15;;;62.50;;
58954;SDS011;45815;52.334;5.024;2023-05-10T07:19:14;35.53;;;25.58;;
58954;SDS011;45815;52.334;5.024;2023-05-10T07:21:39;21.90;;;13.00;;
58954;SDS011;45815;52.334;5.024;2023-05-10T07:24:07;70.13;;;42.65;;
58954;SDS011;45815;52.334;5.024;2023-05-10T07:26:33;20.48;;;13.70;;
58954;SDS011;45815;52.334;5.024;2023-05-10T07:28:58;22.65;;;12.43;;
58954;SDS011;45815;52.334;5.024;2023-05-10T07:31:24;19.90;;;12.50;;
58954;SDS011;45815;52.334;5.024;2023-05-10T07:33:49;19.67;;;11.68;;
58954;SDS011;45815;52.334;5.024;2023-05-10T07:36:14;18.60;;;11.68;;
58954;SDS011;45815;52.334;5.024;2023-05-10T07:38:40;18.80;;;11.55;;
58954;SDS011;45815;52.334;5.024;2023-05-10T07:41:05;17.30;;;11.10;;
58954;SDS011;45815;52.334;5.024;2023-05-10T07:43:31;18.45;;;11.18;;
58954;SDS011;45815;52.334;5.024;2023-05-10T07:45:56;16.85;;;10.68;;
58954;SDS011;45815;52.334;5.024;2023-05-10T07:48:22;20.60;;;11.10;;
58954;SDS011;45815;52.334;5.024;2023-05-10T07:50:48;19.38;;;11.85;;
58954;SDS011;45815;52.334;5.024;2023-05-10T07:53:13;34.15;;;22.23;;
58954;SDS011;45815;52.334;5.024;2023-05-10T07:55:38;26.98;;;17.13;;
58954;SDS011;45815;52.334;5.024;2023-05-10T07:58:04;20.02;;;11.43;;
58954;SDS011;45815;52.334;5.024;2023-05-10T08:00:29;18.17;;;11.23;;
58954;SDS011;45815;52.334;5.024;2023-05-10T08:02:55;18.88;;;10.90;;
58954;SDS011;45815;52.334;5.024;2023-05-10T08:05:20;18.23;;;11.80;;
58954;SDS011;45815;52.334;5.024;2023-05-10T08:07:45;20.65;;;12.60;;
58954;SDS011;45815;52.334;5.024;2023-05-10T08:10:11;19.92;;;12.40;;
58954;SDS011;45815;52.334;5.024;2023-05-10T08:12:37;18.98;;;12.07;;
58954;SDS011;45815;52.334;5.024;2023-05-10T08:15:03;17.70;;;10.95;;
58954;SDS011;45815;52.334;5.024;2023-05-10T08:17:29;17.48;;;11.27;;
58954;SDS011;45815;52.334;5.024;2023-05-10T08:19:54;18.80;;;12.13;;
58954;SDS011;45815;52.334;5.024;2023-05-10T08:22:19;21.38;;;12.10;;
58954;SDS011;45815;52.334;5.024;2023-05-10T08:24:45;56.45;;;47.72;;
58954;SDS011;45815;52.334;5.024;2023-05-10T08:27:10;54.58;;;36.42;;
58954;SDS011;45815;52.334;5.024;2023-05-10T08:29:37;26.65;;;17.60;;
58954;SDS011;45815;52.334;5.024;2023-05-10T08:32:02;20.95;;;12.07;;
58954;SDS011;45815;52.334;5.024;2023-05-10T08:34:28;17.75;;;11.80;;
58954;SDS011;45815;52.334;5.024;2023-05-10T08:36:53;17.15;;;11.15;;
58954;SDS011;45815;52.334;5.024;2023-05-10T08:39:19;16.35;;;10.40;;
58954;SDS011;45815;52.334;5.024;2023-05-10T08:41:45;19.90;;;11.57;;
58954;SDS011;45815;52.334;5.024;2023-05-10T08:44:13;13.70;;;9.75;;
58954;SDS011;45815;52.334;5.024;2023-05-10T08:46:40;16.75;;;10.18;;
58954;SDS011;45815;52.334;5.024;2023-05-10T08:49:08;15.98;;;9.07;;
58954;SDS011;45815;52.334;5.024;2023-05-10T08:51:39;12.55;;;7.68;;
58954;SDS011;45815;52.334;5.024;2023-05-10T08:54:08;14.52;;;8.63;;
58954;SDS011;45815;52.334;5.024;2023-05-10T08:56:34;13.18;;;8.15;;
58954;SDS011;45815;52.334;5.024;2023-05-10T08:59:01;15.82;;;9.20;;
58954;SDS011;45815;52.334;5.024;2023-05-10T09:01:26;14.80;;;9.48;;
58954;SDS011;45815;52.334;5.024;2023-05-10T09:03:52;20.52;;;11.80;;
58954;SDS011;45815;52.334;5.024;2023-05-10T09:06:18;55.95;;;36.42;;
58954;SDS011;45815;52.334;5.024;2023-05-10T09:08:44;18.30;;;10.25;;
58954;SDS011;45815;52.334;5.024;2023-05-10T09:11:11;124.00;;;73.80;;
58954;SDS011;45815;52.334;5.024;2023-05-10T09:13:37;14.70;;;10.05;;
58954;SDS011;45815;52.334;5.024;2023-05-10T09:16:03;12.75;;;7.90;;
58954;SDS011;45815;52.334;5.024;2023-05-10T09:18:29;12.50;;;7.00;;
58954;SDS011;45815;52.334;5.024;2023-05-10T09:20:55;12.52;;;7.35;;
58954;SDS011;45815;52.334;5.024;2023-05-10T09:23:20;11.57;;;7.30;;
58954;SDS011;45815;52.334;5.024;2023-05-10T09:25:46;11.13;;;6.25;;
58954;SDS011;45815;52.334;5.024;2023-05-10T09:28:12;9.73;;;5.25;;
58954;SDS011;45815;52.334;5.024;2023-05-10T09:30:37;7.47;;;4.22;;
58954;SDS011;45815;52.334;5.024;2023-05-10T09:33:03;10.50;;;4.85;;
58954;SDS011;45815;52.334;5.024;2023-05-10T09:35:29;10.35;;;4.90;;
58954;SDS011;45815;52.334;5.024;2023-05-10T09:37:57;11.32;;;5.82;;
58954;SDS011;45815;52.334;5.024;2023-05-10T09:40:26;9.77;;;6.05;;
58954;SDS011;45815;52.334;5.024;2023-05-10T09:42:56;10.13;;;5.28;;
58954;SDS011;45815;52.334;5.024;2023-05-10T09:45:24;8.57;;;5.50;;
58954;SDS011;45815;52.334;5.024;2023-05-10T09:47:53;10.23;;;6.13;;
58954;SDS011;45815;52.334;5.024;2023-05-10T09:50:19;10.02;;;5.70;;
58954;SDS011;45815;52.334;5.024;2023-05-10T09:55:11;10.10;;;4.45;;
58954;SDS011;45815;52.334;5.024;2023-05-10T09:57:37;8.43;;;4.22;;
58954;SDS011;45815;52.334;5.024;2023-05-10T10:00:03;8.55;;;4.45;;
58954;SDS011;45815;52.334;5.024;2023-05-10T10:02:38;7.65;;;4.05;;
58954;SDS011;45815;52.334;5.024;2023-05-10T10:05:05;8.18;;;4.15;;
58954;SDS011;45815;52.334;5.024;2023-05-10T10:07:31;8.65;;;3.80;;
58954;SDS011;45815;52.334;5.024;2023-05-10T10:09:58;8.27;;;4.00;;
58954;SDS011;45815;52.334;5.024;2023-05-10T10:12:23;8.77;;;4.43;;
58954;SDS011;45815;52.334;5.024;2023-05-10T10:14:50;8.18;;;4.00;;
58954;SDS011;45815;52.334;5.024;2023-05-10T10:17:16;5.03;;;2.97;;
58954;SDS011;45815;52.334;5.024;2023-05-10T10:19:42;5.63;;;2.63;;
58954;SDS011;45815;52.334;5.024;2023-05-10T10:22:08;7.75;;;3.40;;
58954;SDS011;45815;52.334;5.024;2023-05-10T10:24:37;8.45;;;3.40;;
58954;SDS011;45815;52.334;5.024;2023-05-10T10:30:25;8.60;;;2.95;;
58954;SDS011;45815;52.334;5.024;2023-05-10T10:35:59;5.97;;;2.90;;
58954;SDS011;45815;52.334;5.024;2023-05-10T10:38:35;5.45;;;2.88;;
58954;SDS011;45815;52.334;5.024;2023-05-10T10:41:06;7.07;;;3.33;;
58954;SDS011;45815;52.334;5.024;2023-05-10T10:43:34;6.82;;;3.25;;
58954;SDS011;45815;52.334;5.024;2023-05-10T10:46:13;6.72;;;3.25;;
58954;SDS011;45815;52.334;5.024;2023-05-10T10:48:47;9.00;;;3.55;;
58954;SDS011;45815;52.334;5.024;2023-05-10T10:51:13;8.35;;;3.33;;
58954;SDS011;45815;52.334;5.024;2023-05-10T10:53:39;10.50;;;5.25;;
58954;SDS011;45815;52.334;5.024;2023-05-10T10:56:12;7.00;;;4.15;;
58954;SDS011;45815;52.334;5.024;2023-05-10T10:58:40;6.00;;;3.40;;
58954;SDS011;45815;52.334;5.024;2023-05-10T11:01:10;8.02;;;3.70;;
58954;SDS011;45815;52.334;5.024;2023-05-10T11:03:37;6.93;;;3.30;;
58954;SDS011;45815;52.334;5.024;2023-05-10T11:06:02;9.88;;;3.53;;
58954;SDS011;45815;52.334;5.024;2023-05-10T11:08:29;5.85;;;2.80;;
58954;SDS011;45815;52.334;5.024;2023-05-10T11:13:43;6.25;;;3.08;;
58954;SDS011;45815;52.334;5.024;2023-05-10T11:16:16;7.60;;;3.38;;
58954;SDS011;45815;52.334;5.024;2023-05-10T11:19:02;6.97;;;3.45;;
58954;SDS011;45815;52.334;5.024;2023-05-10T11:21:30;6.65;;;2.60;;
58954;SDS011;45815;52.334;5.024;2023-05-10T11:23:56;11.00;;;5.97;;
58954;SDS011;45815;52.334;5.024;2023-05-10T11:26:24;50.80;;;38.90;;
58954;SDS011;45815;52.334;5.024;2023-05-10T11:28:51;8.68;;;3.45;;
58954;SDS011;45815;52.334;5.024;2023-05-10T11:31:20;7.55;;;3.17;;
58954;SDS011;45815;52.334;5.024;2023-05-10T11:33:47;8.32;;;4.10;;
58954;SDS011;45815;52.334;5.024;2023-05-10T11:36:14;6.88;;;2.90;;
58954;SDS011;45815;52.334;5.024;2023-05-10T11:38:40;8.50;;;3.17;;
58954;SDS011;45815;52.334;5.024;2023-05-10T11:41:07;6.47;;;3.15;;
58954;SDS011;45815;52.334;5.024;2023-05-10T11:43:34;5.95;;;3.00;;
58954;SDS011;45815;52.334;5.024;2023-05-10T11:46:01;6.82;;;3.08;;
58954;SDS011;45815;52.334;5.024;2023-05-10T11:48:29;6.60;;;3.08;;
58954;SDS011;45815;52.334;5.024;2023-05-10T11:50:55;7.78;;;2.80;;
58954;SDS011;45815;52.334;5.024;2023-05-10T11:53:22;7.18;;;3.58;;
58954;SDS011;45815;52.334;5.024;2023-05-10T11:55:47;8.13;;;4.10;;
58954;SDS011;45815;52.334;5.024;2023-05-10T11:58:13;7.55;;;3.08;;
58954;SDS011;45815;52.334;5.024;2023-05-10T12:00:38;7.22;;;4.05;;
58954;SDS011;45815;52.334;5.024;2023-05-10T12:03:04;7.90;;;3.53;;
58954;SDS011;45815;52.334;5.024;2023-05-10T12:05:31;6.72;;;3.15;;
58954;SDS011;45815;52.334;5.024;2023-05-10T12:08:14;6.05;;;2.85;;
58954;SDS011;45815;52.334;5.024;2023-05-10T12:10:40;5.97;;;2.65;;
58954;SDS011;45815;52.334;5.024;2023-05-10T12:13:10;5.28;;;2.33;;
58954;SDS011;45815;52.334;5.024;2023-05-10T12:15:37;6.77;;;3.10;;
58954;SDS011;45815;52.334;5.024;2023-05-10T12:18:02;6.07;;;2.97;;
58954;SDS011;45815;52.334;5.024;2023-05-10T12:20:28;5.57;;;2.90;;
58954;SDS011;45815;52.334;5.024;2023-05-10T12:22:54;5.80;;;2.97;;
58954;SDS011;45815;52.334;5.024;2023-05-10T12:25:22;9.18;;;3.55;;
58954;SDS011;45815;52.334;5.024;2023-05-10T12:27:56;7.97;;;3.58;;
58954;SDS011;45815;52.334;5.024;2023-05-10T12:30:26;7.07;;;2.97;;
58954;SDS011;45815;52.334;5.024;2023-05-10T12:32:53;7.38;;;3.40;;
58954;SDS011;45815;52.334;5.024;2023-05-10T12:35:19;7.70;;;3.85;;
58954;SDS011;45815;52.334;5.024;2023-05-10T12:37:50;10.45;;;5.45;;
58954;SDS011;45815;52.334;5.024;2023-05-10T12:40:15;7.60;;;4.03;;
58954;SDS011;45815;52.334;5.024;2023-05-10T12:42:41;6.60;;;3.45;;
58954;SDS011;45815;52.334;5.024;2023-05-10T12:45:08;13.07;;;6.18;;
58954;SDS011;45815;52.334;5.024;2023-05-10T12:47:34;10.27;;;5.40;;
58954;SDS011;45815;52.334;5.024;2023-05-10T12:50:01;10.88;;;5.00;;
58954;SDS011;45815;52.334;5.024;2023-05-10T12:52:27;9.02;;;4.80;;
58954;SDS011;45815;52.334;5.024;2023-05-10T12:54:53;9.20;;;4.85;;
58954;SDS011;45815;52.334;5.024;2023-05-10T12:57:21;11.75;;;5.13;;
58954;SDS011;45815;52.334;5.024;2023-05-10T12:59:47;10.25;;;5.07;;
58954;SDS011;45815;52.334;5.024;2023-05-10T13:02:12;8.98;;;4.50;;
58954;SDS011;45815;52.334;5.024;2023-05-10T13:04:39;10.00;;;4.50;;
58954;SDS011;45815;52.334;5.024;2023-05-10T13:07:06;10.18;;;5.05;;
58954;SDS011;45815;52.334;5.024;2023-05-10T13:09:31;13.40;;;6.03;;
58954;SDS011;45815;52.334;5.024;2023-05-10T13:11:57;10.98;;;5.32;;
58954;SDS011;45815;52.334;5.024;2023-05-10T13:14:23;9.73;;;5.10;;
58954;SDS011;45815;52.334;5.024;2023-05-10T13:16:48;9.05;;;4.97;;
58954;SDS011;45815;52.334;5.024;2023-05-10T13:19:14;10.15;;;5.00;;
58954;SDS011;45815;52.334;5.024;2023-05-10T13:21:39;10.88;;;4.78;;
58954;SDS011;45815;52.334;5.024;2023-05-10T13:24:09;9.57;;;4.20;;
58954;SDS011;45815;52.334;5.024;2023-05-10T13:26:35;8.45;;;4.07;;
58954;SDS011;45815;52.334;5.024;2023-05-10T13:29:01;8.38;;;4.20;;
58954;SDS011;45815;52.334;5.024;2023-05-10T13:31:27;7.15;;;3.78;;
58954;SDS011;45815;52.334;5.024;2023-05-10T13:33:52;10.77;;;3.80;;
58954;SDS011;45815;52.334;5.024;2023-05-10T13:36:18;8.68;;;3.53;;
58954;SDS011;45815;52.334;5.024;2023-05-10T13:38:43;7.28;;;3.60;;
58954;SDS011;45815;52.334;5.024;2023-05-10T13:41:09;6.18;;;3.15;;
58954;SDS011;45815;52.334;5.024;2023-05-10T13:43:34;19.42;;;10.55;;
58954;SDS011;45815;52.334;5.024;2023-05-10T13:46:01;6.43;;;3.17;;
58954;SDS011;45815;52.334;5.024;2023-05-10T13:48:26;6.60;;;2.95;;
58954;SDS011;45815;52.334;5.024;2023-05-10T13:50:53;5.90;;;2.38;;
58954;SDS011;45815;52.334;5.024;2023-05-10T13:53:19;6.28;;;2.55;;
58954;SDS011;45815;52.334;5.024;2023-05-10T13:55:44;6.25;;;2.83;;
58954;SDS011;45815;52.334;5.024;2023-05-10T13:58:09;7.18;;;3.05;;
58954;SDS011;45815;52.334;5.024;2023-05-10T14:00:35;6.93;;;3.50;;
58954;SDS011;45815;52.334;5.024;2023-05-10T14:03:01;9.38;;;4.40;;
58954;SDS011;45815;52.334;5.024;2023-05-10T14:05:26;8.00;;;4.80;;
58954;SDS011;45815;52.334;5.024;2023-05-10T14:07:51;11.38;;;4.97;;
58954;SDS011;45815;52.334;5.024;2023-05-10T14:10:17;12.05;;;4.88;;
58954;SDS011;45815;52.334;5.024;2023-05-10T14:12:42;10.35;;;5.28;;
58954;SDS011;45815;52.334;5.024;2023-05-10T14:15:08;10.82;;;4.93;;
58954;SDS011;45815;52.334;5.024;2023-05-10T14:17:35;12.02;;;6.18;;
58954;SDS011;45815;52.334;5.024;2023-05-10T14:20:00;13.07;;;5.82;;
58954;SDS011;45815;52.334;5.024;2023-05-10T14:22:27;12.70;;;6.05;;
58954;SDS011;45815;52.334;5.024;2023-05-10T14:24:52;13.48;;;5.97;;
58954;SDS011;45815;52.334;5.024;2023-05-10T14:27:17;11.70;;;5.35;;
58954;SDS011;45815;52.334;5.024;2023-05-10T14:29:43;13.95;;;6.88;;
58954;SDS011;45815;52.334;5.024;2023-05-10T14:32:08;10.73;;;4.80;;
58954;SDS011;45815;52.334;5.024;2023-05-10T14:34:34;14.90;;;6.38;;
58954;SDS011;45815;52.334;5.024;2023-05-10T14:36:59;11.88;;;6.28;;
58954;SDS011;45815;52.334;5.024;2023-05-10T14:39:24;11.88;;;6.22;;
58954;SDS011;45815;52.334;5.024;2023-05-10T14:41:50;11.90;;;5.72;;
58954;SDS011;45815;52.334;5.024;2023-05-10T14:44:17;12.95;;;6.25;;
58954;SDS011;45815;52.334;5.024;2023-05-10T14:46:42;12.30;;;6.18;;
58954;SDS011;45815;52.334;5.024;2023-05-10T14:49:08;11.95;;;5.63;;
58954;SDS011;45815;52.334;5.024;2023-05-10T14:51:33;12.35;;;5.93;;
58954;SDS011;45815;52.334;5.024;2023-05-10T14:53:59;8.93;;;5.25;;
58954;SDS011;45815;52.334;5.024;2023-05-10T14:56:24;9.25;;;4.88;;
58954;SDS011;45815;52.334;5.024;2023-05-10T14:58:50;10.60;;;5.15;;